This is the latest recevied weather packets stored in our database for station/object KC3WWU. If no packets are shown the sender has not sent any weather packets the latest 1 day(s).
| Time | Temp. | Humidity | Pressure | Rain* | Wind** | Luminosity | Snow |
|---|---|---|---|---|---|---|---|
| 1778017879 | 20° C | 63% | 1006.4 hPa | 0 mm | 2.68 m/s, 261° | 181 W/m² | - |
| 1778017577 | 19.44° C | 65% | 1006.6 hPa | 0 mm | 1.79 m/s, 287° | 155 W/m² | - |
| 1778017273 | 19.44° C | 68% | 1006.6 hPa | 0 mm | 1.34 m/s, 301° | 146 W/m² | - |
| 1778016971 | 18.89° C | 69% | 1006.6 hPa | 0 mm | 1.34 m/s, 8° | 134 W/m² | - |
| 1778016667 | 18.89° C | 71% | 1006.7 hPa | 0 mm | 0.89 m/s, 341° | 113 W/m² | - |
| 1778016363 | 18.89° C | 70% | 1006.8 hPa | 0 mm | 0.89 m/s, 303° | 145 W/m² | - |
| 1778016066 | 19.44° C | 69% | 1007 hPa | 0 mm | 2.68 m/s, 319° | 157 W/m² | - |
| 1778015758 | 19.44° C | 68% | 1006.9 hPa | 0 mm | 0.89 m/s, 356° | 124 W/m² | - |
| 1778015455 | 20° C | 68% | 1006.8 hPa | 0 mm | 1.34 m/s, 330° | 75 W/m² | - |
| 1778015151 | 20° C | 67% | 1006.7 hPa | 0 mm | 1.34 m/s, 322° | 151 W/m² | - |
| 1778014849 | 20° C | 66% | 1006.8 hPa | 0 mm | 1.79 m/s, 352° | 220 W/m² | - |
| 1778014546 | 20° C | 67% | 1006.8 hPa | 0 mm | 1.34 m/s, 309° | 171 W/m² | - |
| 1778014244 | 19.44° C | 67% | 1006.8 hPa | 0 mm | 1.79 m/s, 300° | 303 W/m² | - |
| 1778013941 | 18.89° C | 71% | 1007 hPa | 0 mm | 0.89 m/s, 43° | 269 W/m² | - |
| 1778013638 | 18.33° C | 74% | 1007 hPa | 0 mm | 0.89 m/s, 351° | 146 W/m² | - |
| 1778013335 | 18.33° C | 76% | 1006.8 hPa | 0 mm | 0.89 m/s, 337° | 50 W/m² | - |
| 1778013032 | 18.33° C | 75% | 1007 hPa | 0 mm | 1.34 m/s, 316° | 85 W/m² | - |
| 1778012728 | 18.89° C | 72% | 1006.9 hPa | 0 mm | 1.79 m/s, 295° | 66 W/m² | - |
| 1778012424 | 18.89° C | 71% | 1006.9 hPa | 0 mm | 0.89 m/s, 295° | 44 W/m² | - |
| 1778012121 | 19.44° C | 68% | 1006.8 hPa | 0 mm | 1.34 m/s, 34° | 111 W/m² | - |
| 1778011818 | 20° C | 65% | 1006.8 hPa | 0 mm | 0.89 m/s, 300° | 61 W/m² | - |
| 1778011516 | 20° C | 64% | 1006.7 hPa | 0 mm | 2.24 m/s, 301° | 136 W/m² | - |
| 1778011213 | 20° C | 64% | 1006.4 hPa | 0 mm | 1.79 m/s, 22° | 187 W/m² | - |
| 1778010909 | 20° C | 64% | 1006.8 hPa | 0 mm | 1.34 m/s, 147° | 239 W/m² | - |
| 1778010607 | 19.44° C | 68% | 1006.9 hPa | 0 mm | 1.34 m/s, 287° | 246 W/m² | - |
* Rain latest hour (hover to see other rain measurements)
** Current wind speed in m/s (hover to see current wind gust speed)